Time;durP1;ratioP1;P1;durP2;ratioP2;P2;SDS_P1;SDS_P2;PMS_P1;PMS_P2;Temp;Humidity;BMP_temperature;BMP_pressure;BME280_temperature;BME280_humidity;BME280_pressure;Samples;Min_cycle;Max_cycle;Signal;HPM_P1;HPM_P2
2022/03/14 00:01:32;;;;;;;19.52;9.88;;;;;;;-2.54;79.80;101655.72;10495720;28;20470;-76
2022/03/14 00:06:35;;;;;;;15.15;8.80;;;;;;;-3.28;79.45;101542.91;10500528;28;20044;-76
2022/03/14 00:11:35;;;;;;;17.67;9.88;;;;;;;-2.76;78.98;101660.75;10504785;28;20041;-76
2022/03/14 00:16:40;;;;;;;21.50;10.27;;;;;;;-2.64;80.06;101690.72;10504088;28;20052;-78
2022/03/14 00:21:41;;;;;;;14.20;9.23;;;;;;;-3.49;80.18;101531.44;10504182;28;20127;-76
2022/03/14 00:26:42;;;;;;;13.68;8.77;;;;;;;-2.37;80.02;101704.56;10491934;28;20051;-76
2022/03/14 00:31:43;;;;;;;17.30;8.73;;;;;;;-3.08;79.63;101570.81;10499658;28;20043;-76
2022/03/14 00:36:43;;;;;;;13.68;8.98;;;;;;;-2.45;80.81;101670.13;10503478;28;20062;-76
2022/03/14 00:41:45;;;;;;;14.85;8.32;;;;;;;-3.10;80.56;101526.69;10502993;28;20085;-76
2022/03/14 00:46:45;;;;;;;13.57;9.10;;;;;;;-2.86;80.38;101556.22;10502639;28;20087;-76
2022/03/14 00:51:46;;;;;;;15.57;8.95;;;;;;;-2.16;80.23;101671.75;10472968;28;20080;-76
2022/03/14 00:56:47;;;;;;;17.13;9.68;;;;;;;-2.91;80.30;101545.09;10460321;28;20067;-77
2022/03/14 01:01:48;;;;;;;15.75;9.48;;;;;;;-2.17;79.01;101680.47;10460712;28;20045;-76
2022/03/14 01:06:49;;;;;;;14.15;8.50;;;;;;;-2.25;79.47;101664.25;10460500;28;20076;-76
2022/03/14 01:11:50;;;;;;;24.00;10.90;;;;;;;-1.98;78.96;101702.34;10460864;28;20068;-76
2022/03/14 01:16:52;;;;;;;17.08;10.43;;;;;;;-2.65;78.60;101575.44;10458410;28;20417;-77
2022/03/14 01:21:53;;;;;;;13.38;8.55;;;;;;;-1.71;79.32;101721.34;10460065;28;20045;-77
2022/03/14 01:26:54;;;;;;;13.27;8.68;;;;;;;-2.00;79.61;101678.13;10460180;28;20041;-76
2022/03/14 01:31:54;;;;;;;13.50;8.80;;;;;;;-1.65;79.56;101728.94;10458885;28;20040;-77
2022/03/14 01:36:56;;;;;;;18.67;9.65;;;;;;;-2.24;79.72;101646.00;10459407;28;20060;-76
2022/03/14 01:41:57;;;;;;;16.08;10.48;;;;;;;-1.87;78.78;101686.34;10458683;28;20041;-77
2022/03/14 01:47:00;;;;;;;14.88;9.30;;;;;;;-1.50;79.11;101748.38;10459412;28;20497;-76
2022/03/14 01:52:00;;;;;;;14.52;9.75;;;;;;;-1.66;79.25;101697.72;10459436;28;20396;-77
2022/03/14 01:57:01;;;;;;;15.00;8.88;;;;;;;-1.32;79.26;101735.56;10458615;28;20052;-76
2022/03/14 02:02:02;;;;;;;14.57;9.48;;;;;;;-1.18;78.60;101767.19;10458378;28;20040;-76
2022/03/14 02:07:04;;;;;;;15.85;9.77;;;;;;;-1.96;79.03;101627.63;10457970;28;20063;-76
2022/03/14 02:12:07;;;;;;;16.20;9.52;;;;;;;-1.41;79.48;101723.72;10458060;28;20087;-76
2022/03/14 02:17:13;;;;;;;16.63;8.98;;;;;;;-1.31;79.56;101724.25;10458364;28;20051;-77
2022/03/14 02:22:15;;;;;;;13.70;8.85;;;;;;;-2.28;79.52;101568.06;10457472;28;20405;-76
2022/03/14 02:27:17;;;;;;;12.90;8.75;;;;;;;-1.25;79.38;101760.53;10456664;28;20056;-77
2022/03/14 02:32:18;;;;;;;13.20;9.27;;;;;;;-1.39;79.75;101755.81;10458171;28;20040;-76
2022/03/14 02:37:19;;;;;;;17.83;8.70;;;;;;;-1.54;80.04;101738.97;10456925;28;20048;-76
2022/03/14 02:42:20;;;;;;;15.10;9.63;;;;;;;-2.09;79.26;101652.41;10458261;28;20507;-76
2022/03/14 02:47:21;;;;;;;15.98;9.40;;;;;;;-1.23;80.22;101813.44;10479945;28;20060;-77
2022/03/14 02:52:22;;;;;;;15.95;9.68;;;;;;;-1.47;79.80;101774.31;10490129;28;20412;-77
2022/03/14 02:57:22;;;;;;;14.13;8.80;;;;;;;-1.68;79.89;101734.25;10483007;28;20051;-77
2022/03/14 03:02:24;;;;;;;14.50;9.90;;;;;;;-1.62;79.64;101730.56;10483615;28;20047;-76
2022/03/14 03:07:25;;;;;;;14.02;9.55;;;;;;;-1.29;80.46;101780.63;10486405;28;20044;-76
2022/03/14 03:12:30;;;;;;;13.07;8.13;;;;;;;-1.19;80.15;101805.47;10455178;28;20041;-77
2022/03/14 03:17:31;;;;;;;43.33;18.27;;;;;;;-1.44;80.05;101781.19;10455832;28;20171;-76
2022/03/14 03:22:31;;;;;;;51.35;19.55;;;;;;;-1.20;80.60;101808.09;10455347;28;20120;-77
2022/03/14 03:27:32;;;;;;;22.27;10.50;;;;;;;-2.13;80.06;101650.81;10435408;28;20096;-75
2022/03/14 03:32:34;;;;;;;19.85;9.52;;;;;;;-1.73;80.13;101725.78;10496438;28;20184;-74
2022/03/14 03:37:35;;;;;;;14.55;9.45;;;;;;;-2.30;80.37;101621.03;10495575;28;20051;-76
2022/03/14 03:42:35;;;;;;;71.95;26.17;;;;;;;-1.08;80.99;101807.66;10494987;28;20510;-75
2022/03/14 03:47:36;;;;;;;27.10;12.93;;;;;;;-1.03;80.94;101817.91;10495963;28;20065;-78
2022/03/14 03:52:37;;;;;;;20.33;10.35;;;;;;;-1.94;80.19;101645.81;10495591;28;20535;-76
2022/03/14 03:57:38;;;;;;;21.13;10.25;;;;;;;-0.96;80.20;101807.22;10495462;28;20072;-77
2022/03/14 04:02:39;;;;;;;14.50;9.13;;;;;;;-0.92;79.71;101810.56;10495279;28;20037;-75
2022/03/14 04:07:40;;;;;;;23.40;11.20;;;;;;;-1.70;79.99;101702.22;10494608;28;20066;-78
2022/03/14 04:12:44;;;;;;;23.98;13.93;;;;;;;-1.75;81.02;101695.47;10495554;28;20045;-78
2022/03/14 04:17:44;;;;;;;27.73;10.95;;;;;;;-0.74;81.20;101850.75;10495981;28;20403;-74
2022/03/14 04:22:45;;;;;;;17.73;10.57;;;;;;;-1.72;80.69;101674.50;10494720;28;20048;-77
2022/03/14 04:27:46;;;;;;;19.00;10.80;;;;;;;-0.66;81.10;101850.44;10494532;28;20076;-78
2022/03/14 04:32:47;;;;;;;14.63;10.55;;;;;;;-0.42;81.10;101867.75;10494217;28;20068;-79
2022/03/14 04:37:48;;;;;;;15.48;10.43;;;;;;;-0.54;80.77;101843.00;10494379;28;20041;-80
2022/03/14 04:42:49;;;;;;;16.42;10.15;;;;;;;-0.33;80.36;101850.88;10494790;28;20479;-74
2022/03/14 04:47:50;;;;;;;27.90;13.85;;;;;;;-0.87;79.56;101742.53;10493688;28;20060;-77
2022/03/14 04:52:52;;;;;;;27.02;11.45;;;;;;;-0.93;79.86;101717.53;10492560;28;20037;-77
2022/03/14 04:57:52;;;;;;;16.88;10.43;;;;;;;-0.56;79.50;101766.50;10502361;28;20036;-77
2022/03/14 05:03:03;;;;;;;19.55;10.75;;;;;;;-0.55;78.84;101760.38;10502141;28;20404;-78
2022/03/14 05:08:04;;;;;;;13.75;9.05;;;;;;;-0.14;78.66;101828.34;10502223;28;20052;-77
2022/03/14 05:13:05;;;;;;;14.07;8.88;;;;;;;0.28;78.58;101856.22;10501016;28;20040;-77
2022/03/14 05:18:06;;;;;;;15.50;8.30;;;;;;;0.14;78.09;101863.78;10501499;28;20041;-77
2022/03/14 05:23:07;;;;;;;12.27;7.72;;;;;;;0.46;78.01;101893.81;10501453;28;20135;-77
2022/03/14 05:28:08;;;;;;;15.60;8.95;;;;;;;0.08;77.53;101803.94;10501204;28;20044;-76
2022/03/14 05:33:09;;;;;;;13.98;7.22;;;;;;;0.87;76.56;101893.78;10500576;28;20102;-77
2022/03/14 05:38:10;;;;;;;11.85;8.05;;;;;;;0.99;75.75;101892.38;10500795;28;20036;-77
2022/03/14 05:43:11;;;;;;;14.13;7.85;;;;;;;1.11;74.92;101895.31;10500703;28;20044;-77
2022/03/14 05:48:12;;;;;;;12.07;8.32;;;;;;;1.11;75.46;101887.47;10500169;28;20091;-75
2022/03/14 05:53:13;;;;;;;13.20;8.15;;;;;;;0.33;74.24;101728.81;10500621;28;20066;-75
2022/03/14 05:58:14;;;;;;;12.85;8.52;;;;;;;1.37;74.28;101901.13;10500065;28;20059;-75
2022/03/14 06:03:15;;;;;;;14.48;7.95;;;;;;;1.29;73.28;101887.56;10499435;28;20512;-75
2022/03/14 06:08:17;;;;;;;11.18;7.47;;;;;;;1.14;72.72;101853.28;10498961;28;20076;-75
2022/03/14 06:13:18;;;;;;;12.38;8.15;;;;;;;1.45;72.98;101875.44;10499325;28;20039;-77
2022/03/14 06:18:19;;;;;;;12.50;7.85;;;;;;;1.70;72.46;101898.69;10498547;28;20135;-77
2022/03/14 06:23:20;;;;;;;13.20;7.70;;;;;;;2.07;71.58;101896.94;10498565;28;20075;-76
2022/03/14 06:28:22;;;;;;;12.88;7.95;;;;;;;1.69;71.18;101810.56;10498609;28;20079;-76
2022/03/14 06:33:23;;;;;;;12.23;7.63;;;;;;;2.29;71.17;101897.56;10498344;28;20408;-77
2022/03/14 06:38:23;;;;;;;13.35;7.75;;;;;;;1.51;70.08;101738.13;10498941;28;20055;-76
2022/03/14 06:43:25;;;;;;;13.40;8.25;;;;;;;2.43;69.87;101891.63;10497685;28;20055;-76
2022/03/14 06:48:25;;;;;;;10.32;6.82;;;;;;;2.59;69.72;101880.34;10497241;28;20064;-76
2022/03/14 06:53:26;;;;;;;13.48;8.77;;;;;;;2.42;69.43;101813.00;10497834;28;20040;-76
2022/03/14 06:58:27;;;;;;;15.50;8.25;;;;;;;1.94;68.98;101715.84;10497754;28;20045;-76
2022/03/14 07:03:28;;;;;;;16.95;8.57;;;;;;;2.99;68.57;101881.72;10497929;28;20043;-75
2022/03/14 07:08:29;;;;;;;11.85;7.57;;;;;;;2.84;68.95;101858.91;10496639;28;20068;-76
2022/03/14 07:13:29;;;;;;;12.85;8.20;;;;;;;3.02;68.53;101873.72;10495749;28;20063;-76
2022/03/14 07:18:30;;;;;;;14.38;8.18;;;;;;;3.24;67.70;101877.81;10497212;28;20048;-76
2022/03/14 07:23:31;;;;;;;14.23;8.63;;;;;;;3.23;67.90;101873.47;10496083;28;20047;-75
2022/03/14 07:28:33;;;;;;;17.05;8.57;;;;;;;3.66;66.55;101879.84;10495968;28;20098;-76
2022/03/14 07:33:34;;;;;;;12.73;8.63;;;;;;;2.70;65.42;101734.56;10496912;28;20037;-75
2022/03/14 07:38:34;;;;;;;14.07;8.70;;;;;;;3.14;65.87;101865.19;10495999;28;20420;-75
2022/03/14 07:43:35;;;;;;;18.13;8.82;;;;;;;2.95;66.42;101878.44;10496778;28;20515;-76
2022/03/14 07:48:36;;;;;;;12.48;8.20;;;;;;;3.01;66.24;101879.88;10495668;28;20106;-75
2022/03/14 07:53:37;;;;;;;13.23;8.93;;;;;;;2.98;65.75;101875.63;10495391;28;20053;-77
2022/03/14 07:58:38;;;;;;;18.10;10.07;;;;;;;2.95;65.42;101864.47;10496383;28;20048;-76
2022/03/14 08:03:38;;;;;;;14.82;9.63;;;;;;;2.98;65.70;101843.28;10495280;28;20123;-77
2022/03/14 08:08:39;;;;;;;18.67;9.85;;;;;;;3.16;65.93;101849.34;10495726;28;20048;-76
2022/03/14 08:13:40;;;;;;;14.98;10.13;;;;;;;3.02;65.61;101809.84;10494841;28;20040;-76
2022/03/14 08:18:41;;;;;;;16.90;10.63;;;;;;;2.91;65.04;101799.94;10495559;28;20201;-76
2022/03/14 08:23:42;;;;;;;18.13;11.25;;;;;;;2.22;65.64;101712.66;10494957;28;20181;-76
2022/03/14 08:28:43;;;;;;;17.42;11.38;;;;;;;3.15;65.48;101845.88;10501884;28;20063;-77
2022/03/14 08:33:44;;;;;;;15.43;10.27;;;;;;;3.31;65.47;101845.88;10501696;28;20063;-76
2022/03/14 08:38:45;;;;;;;16.30;10.98;;;;;;;3.36;65.29;101848.25;10503014;28;20067;-76
2022/03/14 08:43:46;;;;;;;17.05;11.05;;;;;;;3.32;65.69;101847.59;10503951;28;20037;-75
2022/03/14 08:48:47;;;;;;;15.88;10.32;;;;;;;2.58;65.03;101685.38;10502038;28;20064;-76
2022/03/14 08:53:47;;;;;;;17.35;11.52;;;;;;;3.37;65.39;101834.19;10501992;28;20583;-75
2022/03/14 08:58:48;;;;;;;16.83;11.70;;;;;;;3.35;65.22;101829.03;10501805;28;20032;-75
2022/03/14 09:03:49;;;;;;;17.08;10.40;;;;;;;3.14;64.94;101781.16;10502916;28;20102;-76
2022/03/14 09:08:50;;;;;;;17.30;11.05;;;;;;;3.39;65.06;101830.53;10501810;28;20036;-75
2022/03/14 09:13:51;;;;;;;15.25;10.77;;;;;;;3.31;65.18;101795.97;10501766;28;20502;-75
2022/03/14 09:18:52;;;;;;;19.77;11.30;;;;;;;3.65;64.69;101815.09;10501530;28;20044;-75
2022/03/14 09:23:53;;;;;;;20.13;11.55;;;;;;;3.71;63.62;101809.50;10501689;28;20051;-76
2022/03/14 09:28:54;;;;;;;42.28;11.80;;;;;;;3.61;63.38;101748.72;10501944;28;20481;-76
2022/03/14 09:33:55;;;;;;;18.90;10.35;;;;;;;4.15;62.68;101777.13;10500357;28;20131;-76
2022/03/14 09:38:56;;;;;;;16.70;10.73;;;;;;;4.49;61.95;101798.78;10498008;28;20044;-76
2022/03/14 09:43:59;;;;;;;13.35;10.02;;;;;;;3.77;61.42;101661.94;10500871;28;20041;-76
2022/03/14 09:49:00;;;;;;;20.40;11.18;;;;;;;4.70;61.47;101805.38;10500320;28;20107;-76
2022/03/14 09:54:01;;;;;;;17.10;10.57;;;;;;;4.67;61.49;101752.91;10499698;28;20489;-76
2022/03/14 09:59:03;;;;;;;14.55;10.27;;;;;;;5.17;60.11;101769.09;10499556;28;20424;-76
2022/03/14 10:04:04;;;;;;;17.75;9.73;;;;;;;5.10;58.93;101775.69;10499958;28;20032;-76
2022/03/14 10:09:05;;;;;;;16.10;9.98;;;;;;;4.89;59.93;101772.63;10500071;28;20051;-76
2022/03/14 10:14:08;;;;;;;14.77;9.75;;;;;;;4.12;59.53;101615.09;10498901;28;20068;-76
2022/03/14 10:19:09;;;;;;;18.45;10.43;;;;;;;5.21;58.98;101768.81;10499322;28;20040;-76
2022/03/14 10:24:12;;;;;;;14.38;10.00;;;;;;;5.30;57.84;101751.56;10499181;28;20079;-76
2022/03/14 10:29:13;;;;;;;20.80;14.15;;;;;;;5.28;58.20;101755.22;10498859;28;20117;-76
2022/03/14 10:34:18;;;;;;;35.17;22.85;;;;;;;4.91;59.37;101752.31;10499004;28;20032;-76
2022/03/14 10:39:32;;;;;;;17.98;11.50;;;;;;;3.73;58.28;101588.63;10498816;28;20063;-75
2022/03/14 10:44:34;;;;;;;;;;;;;;;4.40;56.98;101744.06;10498643;28;20036;-76
2022/03/14 10:49:35;;;;;;;15.52;10.98;;;;;;;3.89;59.45;101726.09;10498470;28;19920;-75
2022/03/14 10:54:39;;;;;;;13.80;9.57;;;;;;;3.91;60.71;101745.22;10497937;28;20055;-75
2022/03/14 10:59:45;;;;;;;14.23;9.90;;;;;;;3.25;60.36;101632.63;10497885;28;20080;-75
2022/03/14 11:04:47;;;;;;;14.13;9.68;;;;;;;3.66;60.96;101744.03;10497794;28;20032;-75
2022/03/14 11:09:53;;;;;;;16.58;10.85;;;;;;;3.61;62.03;101751.34;10496517;28;20076;-75
2022/03/14 11:15:02;;;;;;;27.95;16.65;;;;;;;3.24;62.42;101710.59;10497077;28;20064;-75
2022/03/14 11:20:03;;;;;;;17.30;10.50;;;;;;;3.43;62.16;101707.75;10496459;28;20389;-75
2022/03/14 11:25:05;;;;;;;72.78;53.20;;;;;;;3.47;61.97;101690.00;10495035;28;20036;-75
2022/03/14 11:30:08;;;;;;;32.13;18.00;;;;;;;3.64;61.94;101687.25;10496676;28;20044;-76
2022/03/14 11:35:09;;;;;;;40.42;21.50;;;;;;;3.97;61.92;101747.50;10495954;28;20036;-75
2022/03/14 11:40:11;;;;;;;17.17;11.10;;;;;;;4.08;61.79;101744.25;10495578;28;20123;-75
2022/03/14 11:45:13;;;;;;;18.27;10.98;;;;;;;3.17;61.56;101619.94;10495464;28;20415;-76
2022/03/14 11:50:16;;;;;;;17.17;10.85;;;;;;;3.88;62.08;101748.03;10495610;28;20048;-77
2022/03/14 11:55:23;;;;;;;17.63;10.10;;;;;;;3.86;62.68;101747.31;10496990;28;20503;-75
2022/03/14 12:00:33;;;;;;;14.73;10.25;;;;;;;3.92;62.73;101743.44;10494799;28;20050;-76
2022/03/14 12:05:38;;;;;;;15.52;10.38;;;;;;;4.17;62.26;101733.16;10495835;28;20062;-76
2022/03/14 12:10:38;;;;;;;15.05;9.82;;;;;;;4.33;62.01;101733.91;10495094;28;20131;-75
2022/03/14 12:15:42;;;;;;;17.05;11.93;;;;;;;4.66;60.96;101729.31;10495995;28;20119;-76
2022/03/14 12:20:43;;;;;;;15.88;10.02;;;;;;;4.61;61.34;101705.03;10494656;28;20094;-76
2022/03/14 12:25:44;;;;;;;15.80;11.05;;;;;;;4.78;60.91;101723.25;10494756;28;20117;-76
2022/03/14 12:30:48;;;;;;;15.10;10.15;;;;;;;4.56;59.58;101671.13;10494815;28;20078;-75
2022/03/14 12:35:49;;;;;;;13.32;9.25;;;;;;;4.72;59.92;101726.28;10473732;28;20123;-76
2022/03/14 12:40:56;;;;;;;15.60;10.60;;;;;;;4.52;59.89;101717.88;10453457;28;20147;-76
2022/03/14 12:45:59;;;;;;;15.00;9.93;;;;;;;4.48;59.41;101711.06;10453674;28;20060;-76
2022/03/14 12:51:05;;;;;;;14.35;9.95;;;;;;;3.63;59.25;101598.84;10463729;28;20143;-75
2022/03/14 12:56:25;;;;;;;17.08;10.02;;;;;;;4.51;60.30;101704.78;10505938;28;20040;-75
2022/03/14 13:01:28;;;;;;;17.42;10.40;;;;;;;3.70;60.09;101596.69;10483391;28;20040;-75
2022/03/14 13:06:31;;;;;;;17.58;10.48;;;;;;;3.92;59.91;101659.31;10474446;28;20045;-73
2022/03/14 13:11:35;;;;;;;17.27;11.60;;;;;;;3.39;59.96;101554.72;10494442;28;20045;-73
2022/03/14 13:16:38;;;;;;;21.55;11.38;;;;;;;4.08;60.08;101691.66;10501362;28;20040;-74
2022/03/14 13:21:39;;;;;;;15.05;10.15;;;;;;;3.17;60.70;101556.91;10501323;28;20049;-72
2022/03/14 13:26:43;;;;;;;15.95;10.93;;;;;;;3.06;60.05;101554.94;10490584;28;20507;-73
2022/03/14 13:31:49;;;;;;;17.67;12.55;;;;;;;3.91;60.92;101666.38;10499259;28;20048;-74
2022/03/14 13:36:53;;;;;;;16.55;11.60;;;;;;;3.13;60.47;101532.63;10493007;28;20047;-74
2022/03/14 13:42:00;;;;;;;16.77;10.57;;;;;;;3.82;60.53;101649.34;10475789;28;20049;-72
2022/03/14 13:47:02;;;;;;;16.17;10.45;;;;;;;3.78;60.47;101652.28;10470662;28;20059;-74
2022/03/14 13:52:06;;;;;;;14.68;10.00;;;;;;;3.79;60.83;101688.97;10487557;28;20098;-76
2022/03/14 13:57:12;;;;;;;19.33;9.88;;;;;;;3.79;61.57;101688.13;10494701;28;20120;-79
2022/03/14 14:02:21;;;;;;;15.45;9.80;;;;;;;2.88;61.51;101535.03;10483978;28;20627;-73
2022/03/14 14:07:23;;;;;;;16.73;9.85;;;;;;;3.80;61.38;101687.19;10466141;28;20051;-73
2022/03/14 14:12:25;;;;;;;18.38;10.00;;;;;;;2.80;61.38;101527.59;10493460;28;20040;-74
2022/03/14 14:17:34;;;;;;;18.60;11.07;;;;;;;3.67;61.10;101673.94;10498234;28;20040;-74
2022/03/14 14:22:36;;;;;;;12.82;9.02;;;;;;;3.65;61.12;101697.69;10470954;28;20037;-73
2022/03/14 14:27:55;;;;;;;18.05;9.60;;;;;;;3.59;59.96;101684.03;10478638;28;20040;-74
2022/03/14 14:32:58;;;;;;;69.35;13.02;;;;;;;3.42;60.55;101669.28;10476566;28;20044;-73
2022/03/14 14:37:59;;;;;;;22.60;10.10;;;;;;;3.43;60.40;101687.56;10455819;28;20499;-74
2022/03/14 14:43:00;;;;;;;16.25;10.05;;;;;;;3.47;60.81;101700.53;10463069;28;20044;-73
2022/03/14 14:48:03;;;;;;;17.63;9.60;;;;;;;3.45;60.21;101691.91;10497838;28;20060;-73
2022/03/14 14:53:10;;;;;;;15.27;10.35;;;;;;;2.64;60.54;101572.22;10496789;28;20051;-73
2022/03/14 14:58:12;;;;;;;15.38;9.57;;;;;;;3.33;60.87;101703.97;10491457;28;20044;-73
2022/03/14 15:03:13;;;;;;;16.48;10.20;;;;;;;2.94;60.32;101643.13;10497689;28;20070;-73
2022/03/14 15:08:15;;;;;;;16.50;9.75;;;;;;;3.13;60.89;101695.41;10496752;28;20041;-74
2022/03/14 15:13:18;;;;;;;18.83;9.43;;;;;;;3.14;60.81;101704.13;10497015;28;20037;-74
2022/03/14 15:18:18;;;;;;;27.75;10.73;;;;;;;3.13;60.87;101719.06;10496673;28;20407;-74
2022/03/14 15:23:19;;;;;;;21.83;10.85;;;;;;;2.92;60.95;101688.75;10494928;28;20047;-74
2022/03/14 15:28:20;;;;;;;18.83;12.07;;;;;;;2.96;61.05;101717.41;10495929;28;20048;-74
2022/03/14 15:33:22;;;;;;;15.65;10.07;;;;;;;2.53;61.56;101682.16;10496810;28;20051;-75
2022/03/14 15:38:23;;;;;;;18.98;11.40;;;;;;;2.30;62.04;101670.25;10495951;28;20040;-74
2022/03/14 15:43:24;;;;;;;18.05;11.10;;;;;;;2.32;62.79;101710.38;10496855;28;20062;-74
2022/03/14 15:48:26;;;;;;;15.98;10.23;;;;;;;1.79;63.34;101709.59;10495706;28;20063;-74
2022/03/14 15:53:27;;;;;;;21.13;11.15;;;;;;;1.66;64.40;101732.13;10495384;28;20036;-74
2022/03/14 15:58:28;;;;;;;22.92;12.00;;;;;;;1.15;64.54;101670.91;10496104;28;20407;-74
2022/03/14 16:03:29;;;;;;;22.98;12.70;;;;;;;0.41;65.38;101585.50;10494683;28;20048;-74
2022/03/14 16:08:30;;;;;;;24.13;13.40;;;;;;;0.12;65.40;101575.56;10495654;28;20090;-74
2022/03/14 16:13:31;;;;;;;20.92;12.00;;;;;;;0.73;66.34;101721.75;10495516;28;20041;-74
2022/03/14 16:18:33;;;;;;;37.13;14.82;;;;;;;-0.16;66.18;101610.78;10496037;28;20400;-74
2022/03/14 16:23:33;;;;;;;41.38;21.10;;;;;;;-0.64;66.95;101575.44;10494148;28;20043;-74
2022/03/14 16:28:35;;;;;;;64.40;28.00;;;;;;;0.17;67.25;101722.53;10495247;28;20045;-75
2022/03/14 16:33:36;;;;;;;179.45;47.72;;;;;;;-1.16;67.36;101551.56;10495289;28;20499;-74
2022/03/14 16:38:37;;;;;;;70.25;25.15;;;;;;;-0.25;68.61;101737.38;10472749;28;20041;-74
2022/03/14 16:43:38;;;;;;;60.75;26.25;;;;;;;-0.28;69.03;101749.72;10462144;28;20511;-74
2022/03/14 16:48:39;;;;;;;55.17;21.38;;;;;;;-0.44;69.06;101753.88;10496437;28;20118;-73
2022/03/14 16:53:40;;;;;;;45.72;19.73;;;;;;;-0.96;69.25;101695.06;10502881;28;20491;-74
2022/03/14 16:58:41;;;;;;;53.67;16.48;;;;;;;-0.87;69.22;101753.81;10502340;28;20182;-74
2022/03/14 17:03:42;;;;;;;55.30;22.35;;;;;;;-0.99;70.16;101762.13;10501014;28;20075;-74
2022/03/14 17:08:43;;;;;;;51.33;21.35;;;;;;;-1.03;70.67;101747.50;10502020;28;20482;-74
2022/03/14 17:13:43;;;;;;;87.03;18.27;;;;;;;-1.23;69.90;101730.84;10501454;28;20123;-74
2022/03/14 17:18:46;;;;;;;38.80;13.45;;;;;;;-1.20;70.66;101769.88;10502394;28;20037;-74
2022/03/14 17:23:46;;;;;;;39.28;13.10;;;;;;;-1.24;71.27;101770.88;10501463;28;20195;-74
2022/03/14 17:28:47;;;;;;;40.58;15.27;;;;;;;-1.24;71.18;101777.84;10501517;28;20127;-75
2022/03/14 17:33:48;;;;;;;37.75;17.88;;;;;;;-1.28;72.17;101781.50;10501871;28;20194;-74
2022/03/14 17:38:49;;;;;;;44.13;16.90;;;;;;;-2.63;70.99;101577.97;10501117;28;20036;-74
2022/03/14 17:43:51;;;;;;;40.97;13.75;;;;;;;-2.74;71.27;101625.16;10501719;28;20491;-77
2022/03/14 17:48:52;;;;;;;59.97;22.08;;;;;;;-1.87;72.68;101756.66;10501222;28;20067;-73
2022/03/14 17:53:58;;;;;;;54.42;21.05;;;;;;;-1.70;73.43;101763.91;10500569;28;20493;-74
2022/03/14 17:59:01;;;;;;;44.63;17.20;;;;;;;-1.83;72.56;101751.28;10499402;28;20123;-75
2022/03/14 18:04:02;;;;;;;39.30;16.57;;;;;;;-2.62;72.73;101662.91;10475662;28;20493;-74
2022/03/14 18:09:05;;;;;;;37.75;16.85;;;;;;;-1.92;73.08;101780.25;10478888;28;20045;-74
2022/03/14 18:14:06;;;;;;;55.20;19.13;;;;;;;-2.26;73.21;101735.44;10497402;28;20095;-74
2022/03/14 18:19:08;;;;;;;81.55;29.70;;;;;;;-2.30;73.04;101732.94;10495640;28;20079;-74
2022/03/14 18:24:09;;;;;;;129.63;43.75;;;;;;;-2.24;72.82;101789.16;10470276;28;20128;-73
2022/03/14 18:29:09;;;;;;;69.20;27.17;;;;;;;-2.52;73.58;101751.00;10482362;28;20045;-74
2022/03/14 18:34:15;;;;;;;55.95;23.23;;;;;;;-2.30;74.03;101786.75;10495810;28;20407;-73
2022/03/14 18:39:15;;;;;;;45.78;18.10;;;;;;;-2.63;74.45;101731.44;10490729;28;20048;-73
2022/03/14 18:44:18;;;;;;;43.78;18.13;;;;;;;-2.53;74.08;101756.28;10497217;28;20045;-73
2022/03/14 18:49:20;;;;;;;24.98;13.13;;;;;;;-2.56;73.40;101790.19;10498009;28;20067;-73
2022/03/14 18:54:21;;;;;;;34.72;15.75;;;;;;;-2.84;74.00;101766.78;10498611;28;20131;-74
2022/03/14 18:59:22;;;;;;;27.52;12.95;;;;;;;-2.86;74.90;101764.25;10497520;28;20044;-74
2022/03/14 19:04:25;;;;;;;22.23;12.38;;;;;;;-2.70;75.36;101805.38;10498406;28;20123;-74
2022/03/14 19:09:26;;;;;;;25.38;13.10;;;;;;;-2.69;75.20;101783.66;10497786;28;20075;-74
2022/03/14 19:14:28;;;;;;;27.90;12.50;;;;;;;-2.91;75.37;101763.53;10496734;28;20033;-74
2022/03/14 19:19:30;;;;;;;27.83;12.25;;;;;;;-3.13;75.32;101715.69;10497677;28;20541;-74
2022/03/14 19:24:32;;;;;;;32.58;13.13;;;;;;;-3.00;74.49;101763.81;10497099;28;20051;-74
2022/03/14 19:29:33;;;;;;;100.97;35.80;;;;;;;-3.09;75.37;101764.09;10496259;28;20524;-74
2022/03/14 19:34:35;;;;;;;48.33;19.50;;;;;;;-3.03;75.27;101777.75;10496786;28;20040;-75
2022/03/14 19:39:37;;;;;;;41.03;17.00;;;;;;;-3.23;75.88;101757.56;10496132;28;20393;-74
2022/03/14 19:44:38;;;;;;;54.92;21.67;;;;;;;-3.24;74.73;101775.78;10496140;28;20066;-75
2022/03/14 19:49:39;;;;;;;63.28;24.92;;;;;;;-3.39;75.63;101776.22;10496662;28;20071;-74
2022/03/14 19:54:41;;;;;;;34.63;15.40;;;;;;;-3.73;75.76;101707.06;10491701;28;20480;-75
2022/03/14 19:59:43;;;;;;;44.03;18.52;;;;;;;-3.59;75.51;101750.78;10470227;28;20049;-74
2022/03/14 20:04:44;;;;;;;37.97;17.20;;;;;;;-3.26;77.27;101770.66;10453488;28;20044;-74
2022/03/14 20:09:45;;;;;;;33.38;15.57;;;;;;;-3.05;77.04;101770.88;10453828;28;20055;-74
2022/03/14 20:14:48;;;;;;;39.83;18.70;;;;;;;-2.84;77.67;101777.19;10454086;28;20045;-74
2022/03/14 20:19:52;;;;;;;35.08;18.23;;;;;;;-2.61;77.98;101758.25;10454222;28;20033;-74
2022/03/14 20:24:53;;;;;;;;;;;;;;;-2.43;76.73;101757.66;10462537;28;20045;-76
2022/03/14 20:29:54;;;;;;;30.08;15.02;;;;;;;-2.59;76.67;101733.06;10461759;28;19916;-74
2022/03/14 20:34:54;;;;;;;41.13;20.15;;;;;;;-2.73;75.34;101704.03;10461609;28;20151;-74
2022/03/14 20:39:56;;;;;;;42.22;20.20;;;;;;;-2.52;76.29;101753.59;10462481;28;20044;-74
2022/03/14 20:44:57;;;;;;;55.45;23.45;;;;;;;-2.58;76.18;101706.13;10461888;28;20049;-74
2022/03/14 20:49:58;;;;;;;68.07;28.77;;;;;;;-2.44;75.57;101711.75;10461518;28;20493;-74
2022/03/14 20:55:01;;;;;;;54.50;23.80;;;;;;;-2.13;76.94;101747.13;10461390;28;20045;-74
2022/03/14 21:00:06;;;;;;;45.20;17.75;;;;;;;-2.28;76.99;101721.63;10461074;28;20079;-74
2022/03/14 21:05:08;;;;;;;37.53;17.05;;;;;;;-2.22;76.38;101724.03;10460372;28;20140;-74
2022/03/14 21:10:10;;;;;;;36.70;17.02;;;;;;;-2.87;76.55;101603.94;10460747;28;20404;-76
2022/03/14 21:15:16;;;;;;;53.58;23.65;;;;;;;-2.29;76.09;101726.00;10475849;28;20095;-74
2022/03/14 21:20:18;;;;;;;36.67;16.40;;;;;;;-2.63;77.26;101708.03;10458751;28;20505;-73
2022/03/14 21:25:21;;;;;;;28.33;14.23;;;;;;;-2.36;77.36;101729.72;10459909;28;20044;-74
2022/03/14 21:30:23;;;;;;;23.20;14.00;;;;;;;-2.99;77.14;101643.34;10475622;28;20052;-73
2022/03/14 21:35:24;;;;;;;23.48;12.40;;;;;;;-2.56;76.87;101730.34;10458955;28;20036;-75
2022/03/14 21:40:24;;;;;;;25.40;12.57;;;;;;;-2.69;77.45;101713.44;10459739;28;20591;-73
2022/03/14 21:45:27;;;;;;;27.52;13.70;;;;;;;-4.09;77.55;101472.75;10458797;28;20631;-74
2022/03/14 21:50:30;;;;;;;96.80;33.13;;;;;;;-2.50;77.41;101726.72;10459368;28;20086;-74
2022/03/14 21:55:35;;;;;;;35.35;19.30;;;;;;;-2.89;77.13;101660.31;10458644;28;20069;-74
2022/03/14 22:00:37;;;;;;;37.08;16.83;;;;;;;-2.74;77.31;101665.94;10459294;28;20060;-74
2022/03/14 22:05:38;;;;;;;30.92;15.77;;;;;;;-4.08;77.46;101425.13;10458758;28;20504;-74
2022/03/14 22:10:39;;;;;;;36.33;15.57;;;;;;;-2.17;77.44;101722.97;10457868;28;20079;-74
2022/03/14 22:15:42;;;;;;;25.90;12.95;;;;;;;-2.09;77.52;101731.38;10458532;28;20041;-74
2022/03/14 22:20:45;;;;;;;24.98;12.80;;;;;;;-1.96;76.98;101726.59;10458799;28;20131;-74
2022/03/14 22:25:46;;;;;;;20.48;12.10;;;;;;;-1.97;77.66;101703.22;10458663;28;20496;-74
2022/03/14 22:30:48;;;;;;;23.92;12.25;;;;;;;-1.81;77.31;101708.72;10457117;28;20056;-74
2022/03/14 22:35:49;;;;;;;20.65;12.98;;;;;;;-2.08;77.34;101667.13;10457065;28;20533;-74
2022/03/14 22:40:50;;;;;;;18.13;12.00;;;;;;;-1.89;78.21;101685.53;10457570;28;20120;-74
2022/03/14 22:45:50;;;;;;;20.38;12.20;;;;;;;-1.69;78.50;101703.06;10456620;28;20053;-74
2022/03/14 22:50:51;;;;;;;21.33;12.27;;;;;;;-1.70;78.71;101709.19;10456871;28;20063;-74